Time;durP1;ratioP1;P1;durP2;ratioP2;P2;SDS_P1;SDS_P2;PMS_P1;PMS_P2;Temp;Humidity;BMP_temperature;BMP_pressure;BME280_temperature;BME280_humidity;BME280_pressure;Samples;Min_cycle;Max_cycle;Signal;HPM_P1;HPM_P2
2023/07/29 00:02:22;;;;;;;11.88;8.82;;;;;;;;;;5063753;28;20040;-85
2023/07/29 00:04:48;;;;;;;11.02;7.93;;;;;;;;;;5062190;28;20040;-84
2023/07/29 00:07:14;;;;;;;11.73;8.70;;;;;;;;;;5061703;28;20040;-85
2023/07/29 00:09:40;;;;;;;12.27;8.23;;;;;;;;;;5062357;28;20101;-85
2023/07/29 00:12:06;;;;;;;11.77;9.18;;;;;;;;;;5063201;28;20114;-84
2023/07/29 00:14:32;;;;;;;10.88;8.57;;;;;;;;;;5056131;28;20076;-84
2023/07/29 00:16:58;;;;;;;11.23;9.18;;;;;;;;;;5071926;28;20193;-86
2023/07/29 00:19:24;;;;;;;13.38;9.23;;;;;;;;;;5076499;28;20052;-84
2023/07/29 00:21:50;;;;;;;11.57;9.30;;;;;;;;;;5080318;28;20052;-85
2023/07/29 00:24:16;;;;;;;14.05;9.20;;;;;;;;;;5099968;23;20430;-82
2023/07/29 00:26:42;;;;;;;14.85;9.85;;;;;;;;;;5090923;28;20055;-81
2023/07/29 00:29:08;;;;;;;14.45;9.35;;;;;;;;;;5089928;28;20044;-81
2023/07/29 00:31:34;;;;;;;13.57;9.55;;;;;;;;;;5092052;28;20036;-81
2023/07/29 00:34:00;;;;;;;10.43;8.80;;;;;;;;;;5090436;28;20047;-81
2023/07/29 00:36:26;;;;;;;12.00;8.70;;;;;;;;;;5091201;28;20084;-81
2023/07/29 00:38:54;;;;;;;14.80;9.43;;;;;;;;;;5090362;28;20053;-81
2023/07/29 00:41:21;;;;;;;12.70;10.10;;;;;;;;;;5091586;28;20506;-81
2023/07/29 00:43:47;;;;;;;12.23;9.73;;;;;;;;;;5084889;28;20085;-81
2023/07/29 00:46:14;;;;;;;14.23;10.27;;;;;;;;;;5072659;28;20093;-81
2023/07/29 00:48:40;;;;;;;11.88;10.50;;;;;;;;;;5065045;28;20044;-80
2023/07/29 00:51:06;;;;;;;14.85;11.15;;;;;;;;;;5070696;28;20044;-79
2023/07/29 00:53:32;;;;;;;14.80;11.07;;;;;;;;;;5083444;28;20194;-80
2023/07/29 00:55:58;;;;;;;16.10;11.13;;;;;;;;;;5090348;28;20048;-80
2023/07/29 00:58:24;;;;;;;13.02;10.55;;;;;;;;;;5087234;28;20052;-80
2023/07/29 01:00:51;;;;;;;15.50;11.98;;;;;;;;;;5078985;28;20052;-80
2023/07/29 01:03:17;;;;;;;13.90;11.77;;;;;;;;;;5091338;28;20036;-81
2023/07/29 01:05:51;;;;;;;15.80;11.77;;;;;;;;;;5090527;28;20126;-80
2023/07/29 01:08:36;;;;;;;17.08;11.95;;;;;;;;;;5080711;28;20041;-81
2023/07/29 01:11:09;;;;;;;14.32;11.88;;;;;;;;;;5080139;28;20040;-81
2023/07/29 01:13:45;;;;;;;15.25;11.13;;;;;;;;;;5075820;28;20076;-80
2023/07/29 01:16:18;;;;;;;14.13;11.73;;;;;;;;;;5072813;28;20117;-81
2023/07/29 01:18:47;;;;;;;15.10;12.13;;;;;;;;;;5072642;28;20491;-81
2023/07/29 01:21:14;;;;;;;17.02;12.98;;;;;;;;;;5075220;28;20053;-81
2023/07/29 01:23:40;;;;;;;17.10;12.18;;;;;;;;;;5057920;28;20070;-81
2023/07/29 01:26:06;;;;;;;18.38;12.75;;;;;;;;;;5070864;28;20141;-81
2023/07/29 01:28:32;;;;;;;14.45;12.38;;;;;;;;;;5085336;28;20041;-82
2023/07/29 01:31:03;;;;;;;15.27;12.63;;;;;;;;;;5086972;28;20038;-81
2023/07/29 01:33:34;;;;;;;18.10;12.23;;;;;;;;;;5089450;28;20055;-81
2023/07/29 01:36:08;;;;;;;14.30;11.80;;;;;;;;;;5076374;28;20596;-81
2023/07/29 01:38:36;;;;;;;13.85;11.85;;;;;;;;;;5070195;28;20055;-81
2023/07/29 01:41:03;;;;;;;18.77;12.07;;;;;;;;;;5078607;28;20044;-81
2023/07/29 01:43:29;;;;;;;15.07;12.02;;;;;;;;;;5090462;28;20044;-81
2023/07/29 01:45:56;;;;;;;15.68;11.63;;;;;;;;;;5090547;28;20098;-81
2023/07/29 01:48:22;;;;;;;16.10;12.15;;;;;;;;;;5090701;28;20542;-81
2023/07/29 01:50:48;;;;;;;12.18;10.80;;;;;;;;;;5088960;28;20044;-80
2023/07/29 01:53:14;;;;;;;16.15;13.05;;;;;;;;;;5086715;28;20100;-81
2023/07/29 01:55:40;;;;;;;16.63;12.10;;;;;;;;;;5089877;28;20037;-81
2023/07/29 01:58:06;;;;;;;12.57;11.27;;;;;;;;;;5086997;28;20037;-80
2023/07/29 02:00:32;;;;;;;16.40;11.77;;;;;;;;;;5088604;28;20128;-81
2023/07/29 02:02:58;;;;;;;14.35;12.35;;;;;;;;;;5089052;28;20041;-81
2023/07/29 02:05:24;;;;;;;15.93;11.63;;;;;;;;;;5069796;28;20053;-81
2023/07/29 02:07:50;;;;;;;12.10;10.52;;;;;;;;;;5085741;28;20050;-81
2023/07/29 02:10:16;;;;;;;14.50;11.45;;;;;;;;;;5089503;28;20101;-81
2023/07/29 02:12:42;;;;;;;15.35;10.88;;;;;;;;;;5089011;28;20071;-81
2023/07/29 02:15:09;;;;;;;15.13;11.68;;;;;;;;;;5072238;28;20048;-82
2023/07/29 02:17:35;;;;;;;14.35;11.82;;;;;;;;;;5078112;28;20045;-79
2023/07/29 02:20:01;;;;;;;14.90;10.95;;;;;;;;;;5089386;28;20512;-79
2023/07/29 02:22:27;;;;;;;13.27;10.82;;;;;;;;;;5087848;28;20067;-80
2023/07/29 02:24:53;;;;;;;13.45;10.48;;;;;;;;;;5090749;28;20070;-80
2023/07/29 02:27:19;;;;;;;13.80;10.90;;;;;;;;;;5075062;28;20045;-80
2023/07/29 02:29:45;;;;;;;14.90;11.50;;;;;;;;;;5090665;28;20045;-81
2023/07/29 02:32:11;;;;;;;14.93;11.63;;;;;;;;;;5091927;28;20031;-80
2023/07/29 02:34:37;;;;;;;14.07;11.20;;;;;;;;;;5089212;28;20045;-80
2023/07/29 02:37:04;;;;;;;16.30;12.15;;;;;;;;;;5081138;28;20049;-80
2023/07/29 02:39:30;;;;;;;12.63;10.65;;;;;;;;;;5087338;28;20051;-80
2023/07/29 02:41:58;;;;;;;15.13;10.85;;;;;;;;;;5093373;28;20052;-80
2023/07/29 02:44:24;;;;;;;14.88;11.07;;;;;;;;;;5087638;28;20048;-80
2023/07/29 02:46:52;;;;;;;14.18;10.63;;;;;;;;;;5077672;28;20036;-80
2023/07/29 02:49:18;;;;;;;14.15;10.32;;;;;;;;;;5092485;28;20068;-80
2023/07/29 02:51:44;;;;;;;12.18;10.60;;;;;;;;;;5093071;28;20041;-81
2023/07/29 02:54:10;;;;;;;13.98;10.45;;;;;;;;;;5085339;28;20064;-81
2023/07/29 02:56:36;;;;;;;16.10;10.60;;;;;;;;;;5080881;28;20048;-81
2023/07/29 02:59:02;;;;;;;15.35;10.10;;;;;;;;;;5083158;28;20097;-82
2023/07/29 03:01:28;;;;;;;13.35;10.60;;;;;;;;;;5085970;28;20045;-80
2023/07/29 03:03:54;;;;;;;14.45;10.23;;;;;;;;;;5091949;28;20040;-80
2023/07/29 03:06:20;;;;;;;15.38;10.52;;;;;;;;;;5091972;28;20062;-80
2023/07/29 03:08:46;;;;;;;12.70;10.00;;;;;;;;;;5091519;28;20100;-80
2023/07/29 03:11:15;;;;;;;16.52;10.27;;;;;;;;;;5084105;28;20041;-80
2023/07/29 03:13:42;;;;;;;13.73;10.38;;;;;;;;;;5092369;28;20064;-80
2023/07/29 03:16:09;;;;;;;15.10;10.57;;;;;;;;;;5090111;28;20056;-80
2023/07/29 03:18:35;;;;;;;12.20;10.07;;;;;;;;;;5092106;28;20048;-80
2023/07/29 03:21:01;;;;;;;11.45;9.27;;;;;;;;;;5088335;28;20067;-80
2023/07/29 03:23:28;;;;;;;12.80;9.70;;;;;;;;;;5092432;28;20044;-80
2023/07/29 03:25:56;;;;;;;13.73;9.27;;;;;;;;;;5111943;28;20040;-80
2023/07/29 03:28:28;;;;;;;13.20;8.77;;;;;;;;;;5111707;28;20040;-80
2023/07/29 03:30:54;;;;;;;11.80;8.75;;;;;;;;;;5092225;28;20040;-79
2023/07/29 03:33:21;;;;;;;9.93;8.32;;;;;;;;;;5091906;28;20045;-80
2023/07/29 03:35:47;;;;;;;9.63;7.85;;;;;;;;;;5109301;28;20047;-80
2023/07/29 03:38:13;;;;;;;11.13;7.50;;;;;;;;;;5108436;28;20043;-80
2023/07/29 03:40:40;;;;;;;9.93;7.50;;;;;;;;;;5112308;28;20040;-81
2023/07/29 03:43:06;;;;;;;10.35;7.90;;;;;;;;;;5092570;28;20502;-79
2023/07/29 03:45:32;;;;;;;10.68;7.57;;;;;;;;;;5097425;28;20410;-80
2023/07/29 03:47:58;;;;;;;12.65;7.55;;;;;;;;;;5096303;28;20070;-79
2023/07/29 03:50:24;;;;;;;11.25;6.93;;;;;;;;;;5109607;28;20051;-79
2023/07/29 03:52:50;;;;;;;9.63;7.10;;;;;;;;;;5111276;28;20072;-80
2023/07/29 03:55:16;;;;;;;9.88;6.60;;;;;;;;;;5109977;28;20668;-81
2023/07/29 03:57:42;;;;;;;13.80;6.63;;;;;;;;;;5110835;28;20126;-80
2023/07/29 04:00:09;;;;;;;10.10;6.40;;;;;;;;;;5089520;28;20163;-80
2023/07/29 04:02:38;;;;;;;10.00;6.63;;;;;;;;;;5082888;28;20055;-82
2023/07/29 04:05:05;;;;;;;9.27;6.30;;;;;;;;;;5107558;28;20070;-81
2023/07/29 04:07:31;;;;;;;9.07;5.55;;;;;;;;;;5111789;28;20131;-81
2023/07/29 04:09:57;;;;;;;9.77;5.47;;;;;;;;;;5110134;28;20099;-82
2023/07/29 04:12:24;;;;;;;8.77;5.70;;;;;;;;;;5110847;28;20055;-81
2023/07/29 04:14:50;;;;;;;9.95;5.55;;;;;;;;;;5090194;28;20066;-81
2023/07/29 04:17:16;;;;;;;9.15;5.05;;;;;;;;;;5107902;28;20048;-81
2023/07/29 04:19:42;;;;;;;8.55;4.60;;;;;;;;;;5093831;28;20050;-80
2023/07/29 04:22:08;;;;;;;8.70;4.57;;;;;;;;;;5102780;28;20520;-80
2023/07/29 04:24:34;;;;;;;8.52;4.65;;;;;;;;;;5079289;28;20103;-81
2023/07/29 04:27:00;;;;;;;9.25;4.50;;;;;;;;;;5088641;28;20665;-81
2023/07/29 04:29:26;;;;;;;9.13;4.32;;;;;;;;;;5087032;28;20059;-81
2023/07/29 04:31:52;;;;;;;8.30;4.03;;;;;;;;;;5074360;28;20487;-80
2023/07/29 04:34:19;;;;;;;7.68;4.85;;;;;;;;;;5090303;28;20049;-80
2023/07/29 04:36:48;;;;;;;9.30;4.50;;;;;;;;;;5084147;28;20041;-80
2023/07/29 04:39:15;;;;;;;7.75;4.47;;;;;;;;;;5091028;28;20054;-80
2023/07/29 04:41:41;;;;;;;7.05;3.65;;;;;;;;;;5084491;28;20041;-81
2023/07/29 04:44:07;;;;;;;6.32;3.42;;;;;;;;;;5082977;28;20040;-79
2023/07/29 04:46:33;;;;;;;7.75;3.60;;;;;;;;;;5088375;28;20041;-81
2023/07/29 04:48:59;;;;;;;9.23;3.40;;;;;;;;;;5090180;28;20044;-80
2023/07/29 04:51:25;;;;;;;6.63;3.50;;;;;;;;;;5086888;28;20074;-81
2023/07/29 04:53:51;;;;;;;7.10;3.50;;;;;;;;;;5088462;28;20093;-81
2023/07/29 04:56:17;;;;;;;7.55;3.58;;;;;;;;;;5083473;28;20040;-80
2023/07/29 04:58:43;;;;;;;6.32;3.65;;;;;;;;;;5087209;28;20068;-80
2023/07/29 05:01:09;;;;;;;7.05;3.65;;;;;;;;;;5089621;28;20100;-80
2023/07/29 05:03:36;;;;;;;7.85;4.30;;;;;;;;;;5087720;28;20410;-81
2023/07/29 05:06:03;;;;;;;7.45;4.10;;;;;;;;;;5082962;28;20036;-81
2023/07/29 05:08:29;;;;;;;6.22;3.88;;;;;;;;;;5090907;28;20119;-80
2023/07/29 05:10:55;;;;;;;6.88;3.65;;;;;;;;;;5073172;28;20045;-80
2023/07/29 05:13:22;;;;;;;6.88;4.10;;;;;;;;;;5072407;28;20041;-81
2023/07/29 05:15:48;;;;;;;6.50;4.22;;;;;;;;;;5092037;28;20040;-80
2023/07/29 05:18:15;;;;;;;7.68;3.95;;;;;;;;;;5090190;28;20055;-80
2023/07/29 05:20:41;;;;;;;6.53;3.47;;;;;;;;;;5090634;28;20052;-80
2023/07/29 05:23:07;;;;;;;6.82;3.83;;;;;;;;;;5088366;28;20066;-81
2023/07/29 05:25:36;;;;;;;6.22;3.55;;;;;;;;;;5081020;28;20104;-81
2023/07/29 05:28:02;;;;;;;6.82;3.22;;;;;;;;;;5090600;28;20048;-80
2023/07/29 05:30:30;;;;;;;7.82;3.40;;;;;;;;;;5087261;28;20383;-81
2023/07/29 05:32:57;;;;;;;8.75;3.20;;;;;;;;;;5085392;28;20052;-81
2023/07/29 05:35:23;;;;;;;6.50;3.30;;;;;;;;;;5086885;28;20044;-80
2023/07/29 05:37:49;;;;;;;7.40;3.33;;;;;;;;;;5084592;28;20041;-81
2023/07/29 05:40:15;;;;;;;6.25;3.20;;;;;;;;;;5075076;28;20051;-81
2023/07/29 05:42:41;;;;;;;8.75;3.40;;;;;;;;;;5089319;28;20071;-81
2023/07/29 05:45:08;;;;;;;6.05;3.08;;;;;;;;;;5088150;28;20045;-81
2023/07/29 05:47:34;;;;;;;7.05;3.10;;;;;;;;;;5088820;28;20136;-81
2023/07/29 05:50:04;;;;;;;6.40;2.92;;;;;;;;;;5087549;28;20029;-81
2023/07/29 05:52:30;;;;;;;7.10;3.13;;;;;;;;;;5088396;28;20040;-81
2023/07/29 05:54:56;;;;;;;7.95;3.42;;;;;;;;;;5078958;28;20045;-80
2023/07/29 05:57:22;;;;;;;6.45;3.15;;;;;;;;;;5081810;28;20029;-81
2023/07/29 05:59:48;;;;;;;7.38;3.13;;;;;;;;;;5093021;28;20045;-81
2023/07/29 06:02:14;;;;;;;5.32;2.95;;;;;;;;;;5091270;28;20044;-81
2023/07/29 06:04:40;;;;;;;7.82;3.05;;;;;;;;;;5085620;28;20094;-80
2023/07/29 06:07:06;;;;;;;6.50;3.15;;;;;;;;;;5069867;28;20059;-80
2023/07/29 06:09:32;;;;;;;9.23;3.08;;;;;;;;;;5088082;28;20088;-78
2023/07/29 06:11:58;;;;;;;7.65;3.42;;;;;;;;;;5076561;28;20044;-79
2023/07/29 06:14:25;;;;;;;7.10;3.65;;;;;;;;;;5073644;28;20044;-79
2023/07/29 06:16:51;;;;;;;6.88;3.25;;;;;;;;;;5078240;28;20040;-80
2023/07/29 06:19:17;;;;;;;7.85;3.80;;;;;;;;;;5092316;28;20055;-80
2023/07/29 06:21:43;;;;;;;8.02;3.72;;;;;;;;;;5088608;28;20044;-80
2023/07/29 06:24:09;;;;;;;8.93;3.65;;;;;;;;;;5089789;28;20135;-79
2023/07/29 06:26:35;;;;;;;6.55;4.05;;;;;;;;;;5064933;28;20048;-79
2023/07/29 06:29:01;;;;;;;9.23;4.00;;;;;;;;;;5086944;28;20178;-79
2023/07/29 06:31:27;;;;;;;9.70;4.43;;;;;;;;;;5096233;28;20064;-80
2023/07/29 06:33:54;;;;;;;10.38;4.50;;;;;;;;;;5095862;28;20036;-79
2023/07/29 06:36:20;;;;;;;7.90;4.55;;;;;;;;;;5100707;28;20050;-80
2023/07/29 06:38:46;;;;;;;9.40;4.20;;;;;;;;;;5101231;28;20036;-79
2023/07/29 06:41:13;;;;;;;10.18;4.75;;;;;;;;;;5092008;28;20048;-80
2023/07/29 06:43:39;;;;;;;8.70;4.85;;;;;;;;;;5091848;28;20138;-80
2023/07/29 06:46:05;;;;;;;9.32;4.68;;;;;;;;;;5111592;28;20570;-80
2023/07/29 06:48:31;;;;;;;10.85;4.80;;;;;;;;;;5130745;28;20050;-79
2023/07/29 06:51:00;;;;;;;9.80;4.57;;;;;;;;;;5122046;28;20058;-80
2023/07/29 06:53:26;;;;;;;9.73;4.70;;;;;;;;;;5105023;28;20056;-79
2023/07/29 06:55:53;;;;;;;11.00;4.68;;;;;;;;;;5075539;28;20046;-80
2023/07/29 06:58:19;;;;;;;8.50;4.38;;;;;;;;;;5088896;28;20048;-81
2023/07/29 07:00:45;;;;;;;8.77;4.88;;;;;;;;;;5090768;28;20047;-80
2023/07/29 07:03:11;;;;;;;11.63;4.72;;;;;;;;;;5086268;28;20045;-80
2023/07/29 07:05:37;;;;;;;8.80;4.10;;;;;;;;;;5084016;28;20043;-80
2023/07/29 07:08:03;;;;;;;11.55;5.00;;;;;;;;;;5108091;28;20051;-80
2023/07/29 07:10:30;;;;;;;8.73;4.72;;;;;;;;;;5106459;28;20048;-79
2023/07/29 07:12:56;;;;;;;12.77;5.35;;;;;;;;;;5104222;28;20071;-80
2023/07/29 07:15:22;;;;;;;43.35;6.13;;;;;;;;;;5097010;28;20040;-78
2023/07/29 07:17:48;;;;;;;11.68;4.25;;;;;;;;;;5098392;28;20409;-78
2023/07/29 07:20:14;;;;;;;10.32;5.50;;;;;;;;;;5097110;28;20044;-78
2023/07/29 07:22:40;;;;;;;8.68;4.60;;;;;;;;;;5099632;28;20040;-81
2023/07/29 07:25:06;;;;;;;12.48;5.28;;;;;;;;;;5097143;28;20170;-79
2023/07/29 07:27:32;;;;;;;11.20;4.85;;;;;;;;;;5102708;28;20100;-77
2023/07/29 07:29:59;;;;;;;9.48;4.50;;;;;;;;;;5078418;28;20044;-77
2023/07/29 07:32:25;;;;;;;9.20;5.18;;;;;;;;;;5097785;28;20052;-78
2023/07/29 07:34:51;;;;;;;11.43;4.60;;;;;;;;;;5098914;28;20048;-78
2023/07/29 07:37:17;;;;;;;10.68;4.80;;;;;;;;;;5102703;28;20105;-79
2023/07/29 07:39:43;;;;;;;7.95;4.70;;;;;;;;;;5078131;28;20056;-78
2023/07/29 07:42:09;;;;;;;12.52;5.25;;;;;;;;;;5097210;28;20507;-78
2023/07/29 07:44:35;;;;;;;12.02;5.53;;;;;;;;;;5094439;28;20044;-78
2023/07/29 07:47:01;;;;;;;10.27;5.07;;;;;;;;;;5093240;28;20039;-78
2023/07/29 07:49:27;;;;;;;8.82;4.30;;;;;;;;;;5101004;28;20047;-79
2023/07/29 07:51:53;;;;;;;10.23;4.68;;;;;;;;;;5103718;28;20490;-78
2023/07/29 07:54:20;;;;;;;10.30;5.00;;;;;;;;;;5084329;28;20405;-79
2023/07/29 07:56:46;;;;;;;12.52;5.05;;;;;;;;;;5101215;28;20091;-78
2023/07/29 07:59:12;;;;;;;9.85;4.72;;;;;;;;;;5100031;28;20054;-79
2023/07/29 08:01:39;;;;;;;11.48;4.90;;;;;;;;;;5091155;28;20036;-80
2023/07/29 08:04:05;;;;;;;12.07;4.53;;;;;;;;;;5100168;28;20073;-79
2023/07/29 08:06:32;;;;;;;10.30;4.82;;;;;;;;;;5103708;28;20044;-79
2023/07/29 08:08:58;;;;;;;12.75;5.03;;;;;;;;;;5105692;28;20048;-79
2023/07/29 08:11:24;;;;;;;10.13;4.50;;;;;;;;;;5090394;28;20080;-80
2023/07/29 08:13:50;;;;;;;8.05;3.85;;;;;;;;;;5103175;28;20040;-79
2023/07/29 08:16:16;;;;;;;8.27;4.25;;;;;;;;;;5104368;28;20374;-79
2023/07/29 08:18:42;;;;;;;9.02;3.78;;;;;;;;;;5104379;28;20063;-80
2023/07/29 08:21:09;;;;;;;6.90;3.67;;;;;;;;;;5104415;28;20122;-79
2023/07/29 08:23:35;;;;;;;8.93;4.00;;;;;;;;;;5105704;28;20082;-79
2023/07/29 08:26:05;;;;;;;7.72;3.47;;;;;;;;;;5106168;28;20103;-79
2023/07/29 08:28:38;;;;;;;7.90;3.05;;;;;;;;;;5106995;28;20044;-79
2023/07/29 08:31:05;;;;;;;7.63;3.47;;;;;;;;;;5085651;28;20115;-79
2023/07/29 08:33:33;;;;;;;8.00;3.50;;;;;;;;;;5104982;28;20095;-79
2023/07/29 08:35:59;;;;;;;9.05;3.10;;;;;;;;;;5089758;28;20110;-79
2023/07/29 08:38:26;;;;;;;10.32;3.70;;;;;;;;;;5060921;28;20048;-78
2023/07/29 08:40:55;;;;;;;8.60;3.58;;;;;;;;;;5079252;28;20450;-78
2023/07/29 08:43:24;;;;;;;8.75;3.10;;;;;;;;;;5096053;28;20048;-78
2023/07/29 08:45:51;;;;;;;8.05;3.10;;;;;;;;;;5091450;28;20041;-78
2023/07/29 08:48:20;;;;;;;7.40;2.90;;;;;;;;;;5090374;28;20419;-78
2023/07/29 08:50:47;;;;;;;8.20;2.72;;;;;;;;;;5093019;28;20394;-78
2023/07/29 08:53:13;;;;;;;6.68;3.00;;;;;;;;;;5083457;28;20042;-78
2023/07/29 08:55:39;;;;;;;10.35;2.83;;;;;;;;;;5097752;28;20051;-79
2023/07/29 08:58:05;;;;;;;7.45;2.42;;;;;;;;;;5102410;28;20324;-79
2023/07/29 09:00:32;;;;;;;6.90;2.88;;;;;;;;;;5087463;28;20053;-79
2023/07/29 09:03:04;;;;;;;7.07;3.10;;;;;;;;;;5103543;28;20040;-79
2023/07/29 09:05:30;;;;;;;10.18;2.95;;;;;;;;;;5095058;28;20040;-79
2023/07/29 09:07:56;;;;;;;6.63;2.50;;;;;;;;;;5070713;28;20036;-78
2023/07/29 09:10:23;;;;;;;6.68;2.80;;;;;;;;;;5097018;28;20052;-79
2023/07/29 09:12:49;;;;;;;8.50;2.88;;;;;;;;;;5096780;28;20485;-78
2023/07/29 09:15:27;;;;;;;7.00;2.83;;;;;;;;;;5105339;28;20398;-79
2023/07/29 09:17:53;;;;;;;6.47;3.05;;;;;;;;;;5107255;28;20059;-80
2023/07/29 09:20:24;;;;;;;8.88;3.03;;;;;;;;;;5112571;28;20040;-79
2023/07/29 09:22:50;;;;;;;9.57;2.70;;;;;;;;;;5106596;28;20055;-78
2023/07/29 09:25:17;;;;;;;6.75;2.60;;;;;;;;;;5106327;28;20048;-79
2023/07/29 09:27:43;;;;;;;7.18;2.80;;;;;;;;;;5103516;28;20088;-79
2023/07/29 09:30:16;;;;;;;7.03;2.42;;;;;;;;;;5105791;28;20512;-79
2023/07/29 09:32:42;;;;;;;8.90;2.38;;;;;;;;;;5105736;28;20040;-80
2023/07/29 09:35:12;;;;;;;6.18;2.47;;;;;;;;;;5103496;28;20061;-80
2023/07/29 09:37:41;;;;;;;5.78;2.10;;;;;;;;;;5103295;28;20113;-80
2023/07/29 09:40:07;;;;;;;5.53;2.03;;;;;;;;;;5102037;28;20082;-81
2023/07/29 09:42:33;;;;;;;6.22;2.17;;;;;;;;;;5106051;28;20063;-79
2023/07/29 09:44:59;;;;;;;5.85;1.73;;;;;;;;;;5095299;28;20093;-80
2023/07/29 09:47:27;;;;;;;7.10;1.90;;;;;;;;;;5097934;28;20393;-80
2023/07/29 09:49:54;;;;;;;10.23;2.45;;;;;;;;;;5102857;28;20490;-80
2023/07/29 09:52:20;;;;;;;5.13;1.73;;;;;;;;;;5100510;28;20063;-78
2023/07/29 09:54:47;;;;;;;5.93;1.80;;;;;;;;;;5097280;28;20059;-78
2023/07/29 09:57:17;;;;;;;5.65;1.77;;;;;;;;;;5091670;28;20048;-79
2023/07/29 09:59:43;;;;;;;6.40;1.73;;;;;;;;;;5094162;28;20055;-78
2023/07/29 10:02:14;;;;;;;4.75;1.70;;;;;;;;;;5096702;28;20093;-79
2023/07/29 10:04:42;;;;;;;6.70;2.45;;;;;;;;;;5102204;28;20055;-80
2023/07/29 10:07:09;;;;;;;6.20;1.90;;;;;;;;;;5104369;28;20055;-80
2023/07/29 10:09:35;;;;;;;7.20;2.30;;;;;;;;;;5084111;28;20055;-80
2023/07/29 10:12:01;;;;;;;4.85;1.70;;;;;;;;;;5094060;28;20052;-79
2023/07/29 10:14:28;;;;;;;6.25;1.70;;;;;;;;;;5088864;28;20048;-79
2023/07/29 10:16:55;;;;;;;6.05;1.67;;;;;;;;;;5086498;28;20049;-77
2023/07/29 10:19:22;;;;;;;5.00;1.70;;;;;;;;;;5081493;28;20101;-78
2023/07/29 10:21:50;;;;;;;7.28;1.67;;;;;;;;;;5091691;28;20446;-78
2023/07/29 10:24:18;;;;;;;5.32;1.63;;;;;;;;;;5083678;28;20087;-78
2023/07/29 10:26:47;;;;;;;12.18;1.95;;;;;;;;;;5091684;28;20070;-77
2023/07/29 10:29:13;;;;;;;4.88;1.50;;;;;;;;;;5081508;28;20052;-78
2023/07/29 10:31:41;;;;;;;6.55;1.67;;;;;;;;;;5089091;28;20445;-77
2023/07/29 10:34:07;;;;;;;4.18;1.48;;;;;;;;;;5069595;28;20036;-78
2023/07/29 10:36:33;;;;;;;4.95;1.77;;;;;;;;;;5090658;28;20041;-78
2023/07/29 10:38:59;;;;;;;3.85;1.40;;;;;;;;;;5087905;28;20774;-78
2023/07/29 10:41:46;;;;;;;6.30;2.00;;;;;;;;;;5088646;28;20043;-77
2023/07/29 10:44:30;;;;;;;9.02;1.83;;;;;;;;;;5088509;28;20051;-77
2023/07/29 10:46:57;;;;;;;9.80;1.90;;;;;;;;;;5090352;28;20051;-77
2023/07/29 10:49:24;;;;;;;8.07;1.80;;;;;;;;;;5091677;28;20067;-78
2023/07/29 10:51:50;;;;;;;5.55;1.58;;;;;;;;;;5089927;28;20056;-79
2023/07/29 10:54:16;;;;;;;4.78;1.55;;;;;;;;;;5091679;28;20097;-77
2023/07/29 10:56:43;;;;;;;4.85;1.60;;;;;;;;;;5091824;28;20040;-77
2023/07/29 10:59:13;;;;;;;5.03;1.60;;;;;;;;;;5092962;28;20067;-79
2023/07/29 11:01:40;;;;;;;5.55;1.52;;;;;;;;;;5092682;28;20121;-78
2023/07/29 11:04:24;;;;;;;7.18;1.60;;;;;;;;;;5094150;28;20040;-78
2023/07/29 11:07:23;;;;;;;5.93;1.60;;;;;;;;;;5085926;28;20902;-78
2023/07/29 11:09:49;;;;;;;7.18;1.90;;;;;;;;;;5086826;28;20482;-78
2023/07/29 11:12:34;;;;;;;7.35;1.70;;;;;;;;;;5096372;28;20119;-77
2023/07/29 11:15:03;;;;;;;5.10;1.50;;;;;;;;;;5093878;28;20044;-77
2023/07/29 11:17:31;;;;;;;5.90;1.70;;;;;;;;;;5096604;28;20054;-79
2023/07/29 11:19:59;;;;;;;4.75;1.40;;;;;;;;;;5085308;28;20052;-78
2023/07/29 11:22:26;;;;;;;5.53;1.80;;;;;;;;;;5100678;28;20040;-79
2023/07/29 11:24:52;;;;;;;5.57;1.67;;;;;;;;;;5078889;28;20148;-78
2023/07/29 11:27:18;;;;;;;6.15;1.95;;;;;;;;;;5079166;28;20418;-78
2023/07/29 11:29:44;;;;;;;6.32;2.00;;;;;;;;;;5077493;28;20036;-78
2023/07/29 11:32:10;;;;;;;9.05;4.07;;;;;;;;;;5060704;28;20049;-78
2023/07/29 11:34:36;;;;;;;6.57;2.08;;;;;;;;;;5080794;28;20044;-79
2023/07/29 11:37:02;;;;;;;5.40;1.90;;;;;;;;;;5096627;28;20052;-79
2023/07/29 11:39:28;;;;;;;5.35;2.20;;;;;;;;;;5072631;28;20506;-79
2023/07/29 11:41:54;;;;;;;4.97;1.95;;;;;;;;;;5065207;28;20071;-79
2023/07/29 11:44:21;;;;;;;6.68;2.33;;;;;;;;;;5080172;28;20102;-79
2023/07/29 11:46:48;;;;;;;6.22;2.65;;;;;;;;;;5078744;28;20072;-79
2023/07/29 11:49:15;;;;;;;7.30;2.38;;;;;;;;;;5074637;28;20463;-78
2023/07/29 11:51:42;;;;;;;7.20;2.00;;;;;;;;;;5074535;28;21364;-78
2023/07/29 11:54:09;;;;;;;4.97;1.90;;;;;;;;;;5054394;28;20063;-78
2023/07/29 11:56:35;;;;;;;6.43;2.30;;;;;;;;;;5072402;28;20499;-79
2023/07/29 11:59:02;;;;;;;6.40;2.40;;;;;;;;;;5080217;28;20040;-79
2023/07/29 12:01:29;;;;;;;6.30;2.13;;;;;;;;;;5081124;28;20051;-78
2023/07/29 12:03:56;;;;;;;5.93;2.30;;;;;;;;;;5078679;28;20052;-79
2023/07/29 12:06:24;;;;;;;7.65;2.33;;;;;;;;;;5078750;28;20072;-79
2023/07/29 12:08:50;;;;;;;8.35;2.35;;;;;;;;;;5078447;28;20048;-79
2023/07/29 12:11:16;;;;;;;6.78;2.10;;;;;;;;;;5087643;28;20067;-79
2023/07/29 12:13:42;;;;;;;5.75;1.98;;;;;;;;;;5081347;28;20455;-80
2023/07/29 12:16:08;;;;;;;9.68;2.17;;;;;;;;;;5082161;28;20053;-81
2023/07/29 12:18:35;;;;;;;5.43;2.10;;;;;;;;;;5079619;28;20044;-80
2023/07/29 12:21:01;;;;;;;4.80;2.03;;;;;;;;;;5076000;28;20084;-80
2023/07/29 12:23:27;;;;;;;7.10;2.15;;;;;;;;;;5063832;28;20048;-79
2023/07/29 12:25:58;;;;;;;5.78;2.22;;;;;;;;;;5086014;28;20375;-78
2023/07/29 12:28:24;;;;;;;;;;;;;;;;;;5094573;28;20575;-78
2023/07/29 12:30:56;;;;;;;7.43;1.90;;;;;;;;;;5070105;28;20002;-79
2023/07/29 12:33:31;;;;;;;6.43;2.10;;;;;;;;;;5080074;28;20055;-79
2023/07/29 12:35:57;;;;;;;6.95;2.13;;;;;;;;;;5078639;28;20044;-79
2023/07/29 12:38:23;;;;;;;5.95;1.92;;;;;;;;;;5099417;28;20066;-80
2023/07/29 12:40:49;;;;;;;7.13;2.25;;;;;;;;;;5098781;28;20044;-78
2023/07/29 12:43:15;;;;;;;6.72;2.30;;;;;;;;;;5092626;28;20044;-79
2023/07/29 12:45:42;;;;;;;5.05;1.92;;;;;;;;;;5088716;28;21943;-78
2023/07/29 12:48:08;;;;;;;10.07;2.20;;;;;;;;;;5088213;28;20080;-79
2023/07/29 12:50:34;;;;;;;5.57;1.83;;;;;;;;;;5094422;28;20044;-79
2023/07/29 12:53:00;;;;;;;4.93;1.90;;;;;;;;;;5092288;28;20052;-79
2023/07/29 12:55:26;;;;;;;4.90;1.92;;;;;;;;;;5095164;28;20067;-79
2023/07/29 12:57:52;;;;;;;6.15;2.28;;;;;;;;;;5091192;28;20406;-80
2023/07/29 13:00:18;;;;;;;5.65;2.00;;;;;;;;;;5092707;28;20036;-79
2023/07/29 13:02:44;;;;;;;8.18;2.08;;;;;;;;;;5091699;28;20124;-79
2023/07/29 13:05:14;;;;;;;6.53;2.10;;;;;;;;;;5086486;28;20044;-80
2023/07/29 13:07:40;;;;;;;7.60;2.17;;;;;;;;;;5075343;28;20122;-79
2023/07/29 13:10:06;;;;;;;5.22;2.00;;;;;;;;;;5092457;28;20044;-81
2023/07/29 13:12:33;;;;;;;6.15;2.05;;;;;;;;;;5090602;28;20170;-80
2023/07/29 13:14:59;;;;;;;6.25;1.95;;;;;;;;;;5074390;28;20044;-80
2023/07/29 13:17:25;;;;;;;4.35;1.75;;;;;;;;;;5097418;28;20386;-79
2023/07/29 13:19:51;;;;;;;6.25;1.80;;;;;;;;;;5091234;28;20044;-80
2023/07/29 13:22:17;;;;;;;6.85;1.90;;;;;;;;;;5089813;28;20496;-78
2023/07/29 13:24:43;;;;;;;4.57;1.80;;;;;;;;;;5075745;28;20076;-78
2023/07/29 13:27:09;;;;;;;5.47;2.03;;;;;;;;;;5088921;28;20056;-78
2023/07/29 13:29:35;;;;;;;4.43;1.70;;;;;;;;;;5087669;28;20086;-78
2023/07/29 13:32:01;;;;;;;6.53;1.80;;;;;;;;;;5087562;28;20039;-78
2023/07/29 13:34:27;;;;;;;4.95;1.98;;;;;;;;;;5084653;28;20093;-78
2023/07/29 13:36:53;;;;;;;5.70;1.63;;;;;;;;;;5094361;28;20054;-78
2023/07/29 13:39:19;;;;;;;7.65;2.25;;;;;;;;;;5085382;28;20406;-78
2023/07/29 13:41:45;;;;;;;5.97;2.00;;;;;;;;;;5086388;28;20045;-79
2023/07/29 13:44:12;;;;;;;7.82;2.15;;;;;;;;;;5087192;28;20127;-78
2023/07/29 13:46:38;;;;;;;6.45;2.50;;;;;;;;;;5080757;28;20123;-78
2023/07/29 13:49:04;;;;;;;5.88;1.77;;;;;;;;;;5085887;28;20039;-78
2023/07/29 13:51:30;;;;;;;5.03;1.70;;;;;;;;;;5090209;28;20049;-78
2023/07/29 13:53:56;;;;;;;5.70;1.80;;;;;;;;;;5084775;28;20075;-79
2023/07/29 13:56:22;;;;;;;5.45;1.70;;;;;;;;;;5074484;28;20135;-79
2023/07/29 13:58:48;;;;;;;6.32;1.88;;;;;;;;;;5096148;28;20096;-81
2023/07/29 14:01:14;;;;;;;4.63;2.13;;;;;;;;;;5094367;28;20043;-82
2023/07/29 14:03:40;;;;;;;8.55;2.35;;;;;;;;;;5096124;28;20048;-79
2023/07/29 14:06:06;;;;;;;5.63;2.00;;;;;;;;;;5083652;28;20499;-78
2023/07/29 14:08:35;;;;;;;7.63;2.65;;;;;;;;;;5099758;28;20052;-78
2023/07/29 14:11:01;;;;;;;6.18;2.20;;;;;;;;;;5092246;28;20101;-78
2023/07/29 14:13:27;;;;;;;7.68;2.25;;;;;;;;;;5074096;28;20047;-77
2023/07/29 14:15:53;;;;;;;6.93;2.10;;;;;;;;;;5089107;28;20127;-77
2023/07/29 14:18:19;;;;;;;5.47;1.90;;;;;;;;;;5094251;28;20040;-77
2023/07/29 14:20:45;;;;;;;5.00;1.60;;;;;;;;;;5093053;28;20058;-78
2023/07/29 14:23:11;;;;;;;6.80;1.80;;;;;;;;;;5095525;28;20548;-77
2023/07/29 14:25:37;;;;;;;7.97;1.90;;;;;;;;;;5099969;28;20498;-78
2023/07/29 14:28:03;;;;;;;5.57;1.60;;;;;;;;;;5087718;28;20044;-77
2023/07/29 14:30:29;;;;;;;5.40;1.50;;;;;;;;;;5087604;28;20067;-78
2023/07/29 14:32:55;;;;;;;4.60;1.30;;;;;;;;;;5088152;28;20040;-78
2023/07/29 14:35:22;;;;;;;4.68;1.50;;;;;;;;;;5086338;28;20104;-78